sensor_id;sensor_type;location;lat;lon;timestamp;pressure;altitude;pressure_sealevel;temperature;humidity
46724;BME280;32463;48.298;11.620;2023-08-06T00:00:17;95644.44;;;14.34;100.00
46724;BME280;32463;48.298;11.620;2023-08-06T00:02:44;95636.19;;;14.31;100.00
46724;BME280;32463;48.298;11.620;2023-08-06T00:05:11;95637.59;;;14.40;100.00
46724;BME280;32463;48.298;11.620;2023-08-06T00:07:37;95639.81;;;14.30;100.00
46724;BME280;32463;48.298;11.620;2023-08-06T00:10:04;95638.81;;;14.31;100.00
46724;BME280;32463;48.298;11.620;2023-08-06T00:12:31;95645.84;;;14.37;100.00
46724;BME280;32463;48.298;11.620;2023-08-06T00:14:57;95644.00;;;14.37;100.00
46724;BME280;32463;48.298;11.620;2023-08-06T00:17:25;95641.22;;;14.39;100.00
46724;BME280;32463;48.298;11.620;2023-08-06T00:19:51;95643.44;;;14.35;100.00
46724;BME280;32463;48.298;11.620;2023-08-06T00:22:18;95637.00;;;14.25;100.00
46724;BME280;32463;48.298;11.620;2023-08-06T00:24:44;95632.19;;;14.35;100.00
46724;BME280;32463;48.298;11.620;2023-08-06T00:27:11;95645.63;;;14.32;100.00
46724;BME280;32463;48.298;11.620;2023-08-06T00:29:37;95646.63;;;14.24;100.00
46724;BME280;32463;48.298;11.620;2023-08-06T00:32:04;95638.78;;;14.24;100.00
46724;BME280;32463;48.298;11.620;2023-08-06T00:34:30;95629.78;;;14.27;100.00
46724;BME280;32463;48.298;11.620;2023-08-06T00:36:57;95630.97;;;14.24;100.00
46724;BME280;32463;48.298;11.620;2023-08-06T00:39:23;95633.56;;;14.18;100.00
46724;BME280;32463;48.298;11.620;2023-08-06T00:41:50;95629.53;;;14.08;100.00
46724;BME280;32463;48.298;11.620;2023-08-06T00:44:16;95628.31;;;14.11;100.00
46724;BME280;32463;48.298;11.620;2023-08-06T00:46:43;95622.72;;;14.07;100.00
46724;BME280;32463;48.298;11.620;2023-08-06T00:49:10;95628.34;;;14.04;100.00
46724;BME280;32463;48.298;11.620;2023-08-06T00:51:37;95619.88;;;13.96;100.00
46724;BME280;32463;48.298;11.620;2023-08-06T00:54:04;95630.50;;;13.94;100.00
46724;BME280;32463;48.298;11.620;2023-08-06T00:56:31;95623.09;;;13.98;100.00
46724;BME280;32463;48.298;11.620;2023-08-06T00:58:58;95617.28;;;13.96;100.00
46724;BME280;32463;48.298;11.620;2023-08-06T01:01:28;95613.88;;;13.95;100.00
46724;BME280;32463;48.298;11.620;2023-08-06T01:03:54;95620.25;;;13.86;100.00
46724;BME280;32463;48.298;11.620;2023-08-06T01:06:32;95615.81;;;13.73;100.00
46724;BME280;32463;48.298;11.620;2023-08-06T01:09:08;95615.22;;;13.78;100.00
46724;BME280;32463;48.298;11.620;2023-08-06T01:14:48;95608.16;;;13.59;100.00
46724;BME280;32463;48.298;11.620;2023-08-06T01:17:17;95612.09;;;13.48;100.00
46724;BME280;32463;48.298;11.620;2023-08-06T01:19:44;95617.31;;;13.48;100.00
46724;BME280;32463;48.298;11.620;2023-08-06T01:22:10;95616.91;;;13.51;100.00
46724;BME280;32463;48.298;11.620;2023-08-06T01:24:37;95607.66;;;13.35;100.00
46724;BME280;32463;48.298;11.620;2023-08-06T01:30:13;95606.81;;;13.28;100.00
46724;BME280;32463;48.298;11.620;2023-08-06T01:32:44;95605.97;;;13.21;100.00
46724;BME280;32463;48.298;11.620;2023-08-06T01:35:14;95600.16;;;13.19;100.00
46724;BME280;32463;48.298;11.620;2023-08-06T01:37:41;95597.94;;;13.16;100.00
46724;BME280;32463;48.298;11.620;2023-08-06T01:40:12;95596.69;;;13.12;100.00
46724;BME280;32463;48.298;11.620;2023-08-06T01:42:39;95594.66;;;13.07;100.00
46724;BME280;32463;48.298;11.620;2023-08-06T01:45:07;95594.25;;;13.04;100.00
46724;BME280;32463;48.298;11.620;2023-08-06T01:47:34;95591.69;;;13.10;100.00
46724;BME280;32463;48.298;11.620;2023-08-06T01:50:01;95583.22;;;13.02;100.00
46724;BME280;32463;48.298;11.620;2023-08-06T01:52:28;95592.03;;;13.01;100.00
46724;BME280;32463;48.298;11.620;2023-08-06T01:54:55;95591.03;;;13.02;100.00
46724;BME280;32463;48.298;11.620;2023-08-06T01:57:21;95596.28;;;13.15;100.00
46724;BME280;32463;48.298;11.620;2023-08-06T01:59:48;95595.63;;;13.00;100.00
46724;BME280;32463;48.298;11.620;2023-08-06T02:02:14;95585.06;;;13.08;100.00
46724;BME280;32463;48.298;11.620;2023-08-06T02:04:41;95591.47;;;13.05;100.00
46724;BME280;32463;48.298;11.620;2023-08-06T02:07:07;95591.78;;;12.96;100.00
46724;BME280;32463;48.298;11.620;2023-08-06T02:09:34;95593.88;;;13.07;100.00
46724;BME280;32463;48.298;11.620;2023-08-06T02:12:01;95587.44;;;13.03;100.00
46724;BME280;32463;48.298;11.620;2023-08-06T02:14:27;95588.56;;;12.94;100.00
46724;BME280;32463;48.298;11.620;2023-08-06T02:16:54;95582.13;;;12.90;100.00
46724;BME280;32463;48.298;11.620;2023-08-06T02:19:20;95587.38;;;12.96;100.00
46724;BME280;32463;48.298;11.620;2023-08-06T02:21:47;95582.59;;;13.00;100.00
46724;BME280;32463;48.298;11.620;2023-08-06T02:24:13;95578.97;;;12.94;100.00
46724;BME280;32463;48.298;11.620;2023-08-06T02:26:40;95578.53;;;12.91;100.00
46724;BME280;32463;48.298;11.620;2023-08-06T02:29:06;95573.34;;;12.91;100.00
46724;BME280;32463;48.298;11.620;2023-08-06T02:31:32;95567.75;;;12.94;100.00
46724;BME280;32463;48.298;11.620;2023-08-06T02:33:59;95567.75;;;12.94;100.00
46724;BME280;32463;48.298;11.620;2023-08-06T02:36:25;95560.16;;;12.92;100.00
46724;BME280;32463;48.298;11.620;2023-08-06T02:38:55;95561.72;;;12.87;100.00
46724;BME280;32463;48.298;11.620;2023-08-06T02:41:21;95561.31;;;12.83;100.00
46724;BME280;32463;48.298;11.620;2023-08-06T02:43:47;95564.50;;;12.78;100.00
46724;BME280;32463;48.298;11.620;2023-08-06T02:46:14;95555.31;;;12.82;100.00
46724;BME280;32463;48.298;11.620;2023-08-06T02:48:40;95555.69;;;12.79;100.00
46724;BME280;32463;48.298;11.620;2023-08-06T02:51:07;95553.50;;;12.83;100.00
46724;BME280;32463;48.298;11.620;2023-08-06T02:53:33;95550.50;;;12.79;100.00
46724;BME280;32463;48.298;11.620;2023-08-06T02:56:00;95540.47;;;12.76;100.00
46724;BME280;32463;48.298;11.620;2023-08-06T02:58:26;95539.00;;;12.67;100.00
46724;BME280;32463;48.298;11.620;2023-08-06T03:01:03;95523.22;;;12.69;100.00
46724;BME280;32463;48.298;11.620;2023-08-06T03:03:33;95524.00;;;12.69;100.00
46724;BME280;32463;48.298;11.620;2023-08-06T03:06:00;95526.84;;;12.74;100.00
46724;BME280;32463;48.298;11.620;2023-08-06T03:08:27;95527.69;;;12.81;100.00
46724;BME280;32463;48.298;11.620;2023-08-06T03:10:53;95526.84;;;12.74;100.00
46724;BME280;32463;48.298;11.620;2023-08-06T03:13:20;95526.84;;;12.74;100.00
46724;BME280;32463;48.298;11.620;2023-08-06T03:15:56;95532.44;;;12.71;100.00
46724;BME280;32463;48.298;11.620;2023-08-06T03:18:23;95532.44;;;12.71;100.00
46724;BME280;32463;48.298;11.620;2023-08-06T03:20:51;95541.59;;;12.67;100.00
46724;BME280;32463;48.298;11.620;2023-08-06T03:23:18;95532.75;;;12.62;100.00
46724;BME280;32463;48.298;11.620;2023-08-06T03:25:44;95540.38;;;12.63;100.00
46724;BME280;32463;48.298;11.620;2023-08-06T03:28:11;95533.94;;;12.59;100.00
46724;BME280;32463;48.298;11.620;2023-08-06T03:30:38;95527.50;;;12.55;100.00
46724;BME280;32463;48.298;11.620;2023-08-06T03:33:04;95534.09;;;12.51;100.00
46724;BME280;32463;48.298;11.620;2023-08-06T03:35:31;95528.28;;;12.49;100.00
46724;BME280;32463;48.298;11.620;2023-08-06T03:37:58;95536.72;;;12.51;100.00
46724;BME280;32463;48.298;11.620;2023-08-06T03:40:24;95525.06;;;12.47;100.00
46724;BME280;32463;48.298;11.620;2023-08-06T03:42:51;95520.88;;;12.46;100.00
46724;BME280;32463;48.298;11.620;2023-08-06T03:45:17;95521.63;;;12.40;100.00
46724;BME280;32463;48.298;11.620;2023-08-06T03:47:43;95516.19;;;12.35;100.00
46724;BME280;32463;48.298;11.620;2023-08-06T03:50:10;95515.13;;;12.29;100.00
46724;BME280;32463;48.298;11.620;2023-08-06T03:52:37;95511.19;;;12.33;100.00
46724;BME280;32463;48.298;11.620;2023-08-06T03:55:03;95508.16;;;12.30;100.00
46724;BME280;32463;48.298;11.620;2023-08-06T03:57:30;95509.00;;;12.37;100.00
46724;BME280;32463;48.298;11.620;2023-08-06T03:59:56;95506.84;;;12.40;100.00
46724;BME280;32463;48.298;11.620;2023-08-06T04:02:23;95505.78;;;12.35;100.00
46724;BME280;32463;48.298;11.620;2023-08-06T04:04:49;95508.63;;;12.40;100.00
46724;BME280;32463;48.298;11.620;2023-08-06T04:07:18;95508.81;;;12.38;100.00
46724;BME280;32463;48.298;11.620;2023-08-06T04:09:56;95508.53;;;12.27;100.00
46724;BME280;32463;48.298;11.620;2023-08-06T04:12:23;95507.16;;;12.31;100.00
46724;BME280;32463;48.298;11.620;2023-08-06T04:14:51;95511.00;;;12.35;100.00
46724;BME280;32463;48.298;11.620;2023-08-06T04:17:18;95520.56;;;12.34;100.00
46724;BME280;32463;48.298;11.620;2023-08-06T04:19:54;95515.19;;;12.36;100.00
46724;BME280;32463;48.298;11.620;2023-08-06T04:22:23;95515.81;;;12.38;100.00
46724;BME280;32463;48.298;11.620;2023-08-06T04:24:50;95510.28;;;12.47;100.00
46724;BME280;32463;48.298;11.620;2023-08-06T04:27:18;95514.44;;;12.42;100.00
46724;BME280;32463;48.298;11.620;2023-08-06T04:29:45;95515.13;;;12.57;100.00
46724;BME280;32463;48.298;11.620;2023-08-06T04:32:13;95513.13;;;12.59;100.00
46724;BME280;32463;48.298;11.620;2023-08-06T04:34:39;95511.72;;;12.57;100.00
46724;BME280;32463;48.298;11.620;2023-08-06T04:37:06;95513.13;;;12.53;100.00
46724;BME280;32463;48.298;11.620;2023-08-06T04:39:32;95512.53;;;12.57;100.00
46724;BME280;32463;48.298;11.620;2023-08-06T04:41:59;95515.16;;;12.64;100.00
46724;BME280;32463;48.298;11.620;2023-08-06T04:44:25;95514.44;;;12.76;100.00
46724;BME280;32463;48.298;11.620;2023-08-06T04:46:52;95520.94;;;12.94;100.00
46724;BME280;32463;48.298;11.620;2023-08-06T04:49:20;95511.38;;;13.01;100.00
46724;BME280;32463;48.298;11.620;2023-08-06T04:51:47;95505.81;;;13.10;100.00
46724;BME280;32463;48.298;11.620;2023-08-06T04:54:14;95502.66;;;13.22;100.00
46724;BME280;32463;48.298;11.620;2023-08-06T04:56:40;95495.44;;;13.17;100.00
46724;BME280;32463;48.298;11.620;2023-08-06T04:59:07;95500.09;;;13.28;100.00
46724;BME280;32463;48.298;11.620;2023-08-06T05:01:33;95499.13;;;13.36;100.00
46724;BME280;32463;48.298;11.620;2023-08-06T05:04:00;95505.09;;;13.30;100.00
46724;BME280;32463;48.298;11.620;2023-08-06T05:06:26;95500.69;;;13.30;100.00
46724;BME280;32463;48.298;11.620;2023-08-06T05:08:53;95500.31;;;13.46;100.00
46724;BME280;32463;48.298;11.620;2023-08-06T05:11:19;95507.94;;;13.48;100.00
46724;BME280;32463;48.298;11.620;2023-08-06T05:13:45;95510.72;;;13.33;100.00
46724;BME280;32463;48.298;11.620;2023-08-06T05:16:12;95509.09;;;13.26;100.00
46724;BME280;32463;48.298;11.620;2023-08-06T05:18:38;95515.53;;;13.36;100.00
46724;BME280;32463;48.298;11.620;2023-08-06T05:21:06;95511.28;;;13.22;100.00
46724;BME280;32463;48.298;11.620;2023-08-06T05:23:32;95511.50;;;13.27;100.00
46724;BME280;32463;48.298;11.620;2023-08-06T05:25:59;95528.72;;;13.28;100.00
46724;BME280;32463;48.298;11.620;2023-08-06T05:28:25;95515.25;;;13.18;100.00
46724;BME280;32463;48.298;11.620;2023-08-06T05:30:52;95508.59;;;13.09;100.00
46724;BME280;32463;48.298;11.620;2023-08-06T05:33:18;95520.59;;;13.03;100.00
46724;BME280;32463;48.298;11.620;2023-08-06T05:35:45;95519.41;;;13.06;100.00
46724;BME280;32463;48.298;11.620;2023-08-06T05:38:11;95517.41;;;13.08;100.00
46724;BME280;32463;48.298;11.620;2023-08-06T05:40:38;95511.22;;;13.09;100.00
46724;BME280;32463;48.298;11.620;2023-08-06T05:43:04;95517.00;;;13.04;100.00
46724;BME280;32463;48.298;11.620;2023-08-06T05:45:31;95519.84;;;13.16;100.00
46724;BME280;32463;48.298;11.620;2023-08-06T05:47:57;95518.84;;;13.17;100.00
46724;BME280;32463;48.298;11.620;2023-08-06T05:50:23;95517.69;;;13.26;100.00
46724;BME280;32463;48.298;11.620;2023-08-06T05:52:50;95516.09;;;13.25;100.00
46724;BME280;32463;48.298;11.620;2023-08-06T05:55:17;95518.38;;;13.41;100.00
46724;BME280;32463;48.298;11.620;2023-08-06T05:57:43;95516.31;;;13.30;100.00
46724;BME280;32463;48.298;11.620;2023-08-06T06:00:10;95517.13;;;13.31;100.00
46724;BME280;32463;48.298;11.620;2023-08-06T06:02:37;95509.50;;;13.29;100.00
46724;BME280;32463;48.298;11.620;2023-08-06T06:05:03;95511.09;;;13.30;100.00
46724;BME280;32463;48.298;11.620;2023-08-06T06:07:30;95507.94;;;13.35;100.00
46724;BME280;32463;48.298;11.620;2023-08-06T06:09:56;95515.97;;;13.40;100.00
46724;BME280;32463;48.298;11.620;2023-08-06T06:12:23;95521.97;;;13.54;100.00
46724;BME280;32463;48.298;11.620;2023-08-06T06:14:50;95518.38;;;13.55;100.00
46724;BME280;32463;48.298;11.620;2023-08-06T06:17:17;95515.97;;;13.53;100.00
46724;BME280;32463;48.298;11.620;2023-08-06T06:19:43;95514.44;;;13.72;100.00
46724;BME280;32463;48.298;11.620;2023-08-06T06:22:10;95518.81;;;13.78;100.00
46724;BME280;32463;48.298;11.620;2023-08-06T06:24:36;95514.66;;;13.90;100.00
46724;BME280;32463;48.298;11.620;2023-08-06T06:27:03;95517.66;;;13.87;100.00
46724;BME280;32463;48.298;11.620;2023-08-06T06:29:29;95518.84;;;13.85;100.00
46724;BME280;32463;48.298;11.620;2023-08-06T06:31:56;95521.28;;;13.99;100.00
46724;BME280;32463;48.298;11.620;2023-08-06T06:34:22;95514.84;;;14.08;100.00
46724;BME280;32463;48.298;11.620;2023-08-06T06:36:49;95520.88;;;14.29;100.00
46724;BME280;32463;48.298;11.620;2023-08-06T06:39:15;95513.88;;;14.36;100.00
46724;BME280;32463;48.298;11.620;2023-08-06T06:41:42;95517.06;;;14.25;100.00
46724;BME280;32463;48.298;11.620;2023-08-06T06:44:09;95514.25;;;14.26;100.00
46724;BME280;32463;48.298;11.620;2023-08-06T06:46:36;95523.28;;;14.30;100.00
46724;BME280;32463;48.298;11.620;2023-08-06T06:49:05;95518.06;;;14.37;100.00
46724;BME280;32463;48.298;11.620;2023-08-06T06:51:31;95522.84;;;14.40;100.00
46724;BME280;32463;48.298;11.620;2023-08-06T06:53:58;95516.06;;;14.52;100.00
46724;BME280;32463;48.298;11.620;2023-08-06T06:56:24;95511.84;;;14.51;100.00
46724;BME280;32463;48.298;11.620;2023-08-06T06:58:51;95515.06;;;14.66;100.00
46724;BME280;32463;48.298;11.620;2023-08-06T07:01:18;95514.00;;;14.80;100.00
46724;BME280;32463;48.298;11.620;2023-08-06T07:03:44;95512.88;;;15.21;100.00
46724;BME280;32463;48.298;11.620;2023-08-06T07:06:10;95515.50;;;15.14;100.00
46724;BME280;32463;48.298;11.620;2023-08-06T07:08:37;95517.28;;;15.27;100.00
46724;BME280;32463;48.298;11.620;2023-08-06T07:11:06;95506.06;;;15.20;100.00
46724;BME280;32463;48.298;11.620;2023-08-06T07:13:33;95497.81;;;15.23;100.00
46724;BME280;32463;48.298;11.620;2023-08-06T07:16:00;95508.84;;;15.25;100.00
46724;BME280;32463;48.298;11.620;2023-08-06T07:18:27;95501.00;;;15.25;100.00
46724;BME280;32463;48.298;11.620;2023-08-06T07:20:54;95501.28;;;15.48;100.00
46724;BME280;32463;48.298;11.620;2023-08-06T07:23:22;95508.03;;;15.69;100.00
46724;BME280;32463;48.298;11.620;2023-08-06T07:25:49;95487.94;;;15.70;100.00
46724;BME280;32463;48.298;11.620;2023-08-06T07:28:16;95493.03;;;15.90;100.00
46724;BME280;32463;48.298;11.620;2023-08-06T07:30:44;95492.38;;;15.94;100.00
46724;BME280;32463;48.298;11.620;2023-08-06T07:33:11;95497.56;;;15.69;100.00
46724;BME280;32463;48.298;11.620;2023-08-06T07:35:38;95502.16;;;15.36;100.00
46724;BME280;32463;48.298;11.620;2023-08-06T07:38:04;95495.84;;;15.12;100.00
46724;BME280;32463;48.298;11.620;2023-08-06T07:40:31;95502.13;;;14.91;100.00
46724;BME280;32463;48.298;11.620;2023-08-06T07:42:57;95485.03;;;15.02;100.00
46724;BME280;32463;48.298;11.620;2023-08-06T07:45:24;95479.72;;;15.22;100.00
46724;BME280;32463;48.298;11.620;2023-08-06T07:47:52;95491.72;;;15.29;100.00
46724;BME280;32463;48.298;11.620;2023-08-06T07:50:18;95478.63;;;15.42;100.00
46724;BME280;32463;48.298;11.620;2023-08-06T07:52:44;95477.47;;;15.70;100.00
46724;BME280;32463;48.298;11.620;2023-08-06T07:55:11;95475.38;;;15.85;100.00
46724;BME280;32463;48.298;11.620;2023-08-06T07:57:37;95473.34;;;15.87;100.00
46724;BME280;32463;48.298;11.620;2023-08-06T08:00:04;95478.00;;;16.10;100.00
46724;BME280;32463;48.298;11.620;2023-08-06T08:02:31;95474.28;;;15.68;100.00
46724;BME280;32463;48.298;11.620;2023-08-06T08:04:57;95478.06;;;15.72;100.00
46724;BME280;32463;48.298;11.620;2023-08-06T08:07:24;95473.19;;;15.82;100.00
46724;BME280;32463;48.298;11.620;2023-08-06T08:09:52;95470.97;;;16.29;100.00
46724;BME280;32463;48.298;11.620;2023-08-06T08:12:19;95470.06;;;16.41;100.00
46724;BME280;32463;48.298;11.620;2023-08-06T08:14:46;95454.50;;;16.90;100.00
46724;BME280;32463;48.298;11.620;2023-08-06T08:17:13;95473.69;;;16.83;100.00
46724;BME280;32463;48.298;11.620;2023-08-06T08:19:40;95461.19;;;16.86;100.00
46724;BME280;32463;48.298;11.620;2023-08-06T08:22:07;95452.69;;;17.20;100.00
46724;BME280;32463;48.298;11.620;2023-08-06T08:24:34;95454.41;;;16.96;100.00
46724;BME280;32463;48.298;11.620;2023-08-06T08:27:01;95442.44;;;16.70;100.00
46724;BME280;32463;48.298;11.620;2023-08-06T08:29:27;95457.41;;;17.00;100.00
46724;BME280;32463;48.298;11.620;2023-08-06T08:31:53;95454.50;;;16.71;100.00
46724;BME280;32463;48.298;11.620;2023-08-06T08:34:20;95462.94;;;16.73;100.00
46724;BME280;32463;48.298;11.620;2023-08-06T08:36:47;95462.06;;;16.98;100.00
46724;BME280;32463;48.298;11.620;2023-08-06T08:39:15;95448.88;;;16.86;100.00
46724;BME280;32463;48.298;11.620;2023-08-06T08:41:42;95457.78;;;17.33;100.00
46724;BME280;32463;48.298;11.620;2023-08-06T08:44:09;95458.03;;;17.43;100.00
46724;BME280;32463;48.298;11.620;2023-08-06T08:46:37;95453.94;;;17.66;100.00
46724;BME280;32463;48.298;11.620;2023-08-06T08:49:04;95460.25;;;17.88;100.00
46724;BME280;32463;48.298;11.620;2023-08-06T08:51:33;95463.75;;;17.40;100.00
46724;BME280;32463;48.298;11.620;2023-08-06T08:54:04;95468.50;;;17.43;100.00
46724;BME280;32463;48.298;11.620;2023-08-06T08:56:31;95460.94;;;17.95;100.00
46724;BME280;32463;48.298;11.620;2023-08-06T08:58:58;95479.19;;;17.90;100.00
46724;BME280;32463;48.298;11.620;2023-08-06T09:01:26;95462.78;;;18.06;100.00
46724;BME280;32463;48.298;11.620;2023-08-06T09:03:53;95460.97;;;18.18;100.00
46724;BME280;32463;48.298;11.620;2023-08-06T09:06:21;95463.81;;;18.05;100.00
46724;BME280;32463;48.298;11.620;2023-08-06T09:09:06;95461.88;;;18.12;100.00
46724;BME280;32463;48.298;11.620;2023-08-06T09:11:35;95451.31;;;17.66;100.00
46724;BME280;32463;48.298;11.620;2023-08-06T09:14:06;95477.22;;;17.26;100.00
46724;BME280;32463;48.298;11.620;2023-08-06T09:16:36;95475.50;;;16.83;100.00
46724;BME280;32463;48.298;11.620;2023-08-06T09:19:13;95488.91;;;16.50;100.00
46724;BME280;32463;48.298;11.620;2023-08-06T09:21:41;95490.84;;;16.11;100.00
46724;BME280;32463;48.298;11.620;2023-08-06T09:24:12;95487.84;;;15.83;100.00
46724;BME280;32463;48.298;11.620;2023-08-06T09:26:43;95494.41;;;15.61;100.00
46724;BME280;32463;48.298;11.620;2023-08-06T09:29:10;95493.03;;;15.58;100.00
46724;BME280;32463;48.298;11.620;2023-08-06T09:31:48;95487.28;;;15.74;100.00
46724;BME280;32463;48.298;11.620;2023-08-06T09:34:18;95493.63;;;16.16;100.00
46724;BME280;32463;48.298;11.620;2023-08-06T09:36:47;95493.31;;;16.06;100.00
46724;BME280;32463;48.298;11.620;2023-08-06T09:39:18;95485.72;;;16.48;100.00
46724;BME280;32463;48.298;11.620;2023-08-06T09:41:45;95483.66;;;16.75;100.00
46724;BME280;32463;48.298;11.620;2023-08-06T09:44:20;95486.59;;;17.15;100.00
46724;BME280;32463;48.298;11.620;2023-08-06T09:46:53;95492.94;;;17.56;100.00
46724;BME280;32463;48.298;11.620;2023-08-06T09:49:24;95474.72;;;17.01;100.00
46724;BME280;32463;48.298;11.620;2023-08-06T09:51:52;95490.50;;;16.51;100.00
46724;BME280;32463;48.298;11.620;2023-08-06T09:54:22;95481.78;;;15.89;100.00
46724;BME280;32463;48.298;11.620;2023-08-06T09:56:49;95495.00;;;15.94;100.00
46724;BME280;32463;48.298;11.620;2023-08-06T09:59:16;95495.31;;;16.04;100.00
46724;BME280;32463;48.298;11.620;2023-08-06T10:01:43;95491.38;;;15.95;100.00
46724;BME280;32463;48.298;11.620;2023-08-06T10:04:10;95491.81;;;16.42;100.00
46724;BME280;32463;48.298;11.620;2023-08-06T10:06:37;95476.03;;;16.73;100.00
46724;BME280;32463;48.298;11.620;2023-08-06T10:09:04;95481.53;;;17.02;100.00
46724;BME280;32463;48.298;11.620;2023-08-06T10:11:32;95481.88;;;17.42;100.00
46724;BME280;32463;48.298;11.620;2023-08-06T10:14:06;95479.50;;;17.04;100.00
46724;BME280;32463;48.298;11.620;2023-08-06T10:16:35;95489.63;;;17.00;100.00
46724;BME280;32463;48.298;11.620;2023-08-06T10:19:07;95474.09;;;17.17;100.00
46724;BME280;32463;48.298;11.620;2023-08-06T10:21:35;95469.47;;;17.79;100.00
46724;BME280;32463;48.298;11.620;2023-08-06T10:24:02;95478.97;;;17.92;100.00
46724;BME280;32463;48.298;11.620;2023-08-06T10:26:29;95479.56;;;18.17;100.00
46724;BME280;32463;48.298;11.620;2023-08-06T10:28:56;95481.03;;;18.01;100.00
46724;BME280;32463;48.298;11.620;2023-08-06T10:31:54;95488.34;;;17.39;100.00
46724;BME280;32463;48.298;11.620;2023-08-06T10:34:21;95490.84;;;16.98;100.00
46724;BME280;32463;48.298;11.620;2023-08-06T10:36:47;95472.75;;;16.53;100.00
46724;BME280;32463;48.298;11.620;2023-08-06T10:39:14;95477.97;;;16.96;100.00
46724;BME280;32463;48.298;11.620;2023-08-06T10:41:42;95491.84;;;17.15;100.00
46724;BME280;32463;48.298;11.620;2023-08-06T10:44:10;95490.09;;;17.27;100.00
46724;BME280;32463;48.298;11.620;2023-08-06T10:46:37;95497.31;;;17.32;100.00
46724;BME280;32463;48.298;11.620;2023-08-06T10:49:04;95496.44;;;17.38;100.00
46724;BME280;32463;48.298;11.620;2023-08-06T10:51:32;95490.63;;;17.47;100.00
46724;BME280;32463;48.298;11.620;2023-08-06T10:53:59;95492.16;;;17.55;100.00
46724;BME280;32463;48.298;11.620;2023-08-06T10:56:25;95504.69;;;17.71;100.00
46724;BME280;32463;48.298;11.620;2023-08-06T10:58:56;95488.59;;;17.68;100.00
46724;BME280;32463;48.298;11.620;2023-08-06T11:01:23;95488.66;;;17.31;100.00
46724;BME280;32463;48.298;11.620;2023-08-06T11:03:50;95494.63;;;17.02;100.00
46724;BME280;32463;48.298;11.620;2023-08-06T11:06:19;95496.16;;;16.91;100.00
46724;BME280;32463;48.298;11.620;2023-08-06T11:08:51;95495.66;;;16.58;100.00
46724;BME280;32463;48.298;11.620;2023-08-06T11:11:19;95485.78;;;16.60;100.00
46724;BME280;32463;48.298;11.620;2023-08-06T11:13:48;95489.97;;;16.67;100.00
46724;BME280;32463;48.298;11.620;2023-08-06T11:16:22;95495.03;;;16.62;100.00
46724;BME280;32463;48.298;11.620;2023-08-06T11:18:49;95503.66;;;16.69;100.00
46724;BME280;32463;48.298;11.620;2023-08-06T11:21:21;95501.94;;;16.32;100.00
46724;BME280;32463;48.298;11.620;2023-08-06T11:23:49;95519.25;;;16.33;100.00
46724;BME280;32463;48.298;11.620;2023-08-06T11:26:20;95504.31;;;16.58;100.00
46724;BME280;32463;48.298;11.620;2023-08-06T11:28:49;95507.97;;;16.32;100.00
46724;BME280;32463;48.298;11.620;2023-08-06T11:31:22;95530.03;;;16.43;100.00
46724;BME280;32463;48.298;11.620;2023-08-06T11:33:53;95517.16;;;16.41;100.00
46724;BME280;32463;48.298;11.620;2023-08-06T11:39:00;95534.13;;;16.32;100.00
46724;BME280;32463;48.298;11.620;2023-08-06T11:41:28;95522.66;;;16.08;100.00
46724;BME280;32463;48.298;11.620;2023-08-06T11:43:55;95532.47;;;15.88;100.00
46724;BME280;32463;48.298;11.620;2023-08-06T11:46:22;95536.31;;;15.79;100.00
46724;BME280;32463;48.298;11.620;2023-08-06T11:48:53;95518.69;;;15.99;100.00
46724;BME280;32463;48.298;11.620;2023-08-06T11:51:23;95530.97;;;16.24;100.00
46724;BME280;32463;48.298;11.620;2023-08-06T11:53:54;95533.28;;;16.38;100.00
46724;BME280;32463;48.298;11.620;2023-08-06T11:56:20;95529.59;;;16.71;100.00
46724;BME280;32463;48.298;11.620;2023-08-06T11:58:47;95536.28;;;16.67;100.00
46724;BME280;32463;48.298;11.620;2023-08-06T12:01:14;95519.34;;;16.44;100.00
46724;BME280;32463;48.298;11.620;2023-08-06T12:03:40;95525.03;;;16.84;100.00
46724;BME280;32463;48.298;11.620;2023-08-06T12:06:07;95533.91;;;17.02;100.00
46724;BME280;32463;48.298;11.620;2023-08-06T12:08:33;95524.00;;;16.86;100.00
46724;BME280;32463;48.298;11.620;2023-08-06T12:11:00;95532.09;;;16.34;100.00
46724;BME280;32463;48.298;11.620;2023-08-06T12:13:27;95545.88;;;16.23;100.00
46724;BME280;32463;48.298;11.620;2023-08-06T12:15:54;95536.88;;;16.19;100.00
46724;BME280;32463;48.298;11.620;2023-08-06T12:18:22;95540.72;;;16.41;100.00
46724;BME280;32463;48.298;11.620;2023-08-06T12:20:49;95543.63;;;16.51;100.00
46724;BME280;32463;48.298;11.620;2023-08-06T12:23:15;95535.47;;;16.66;100.00
46724;BME280;32463;48.298;11.620;2023-08-06T12:25:42;95529.75;;;17.12;100.00
46724;BME280;32463;48.298;11.620;2023-08-06T12:28:10;95523.50;;;17.13;100.00
46724;BME280;32463;48.298;11.620;2023-08-06T12:30:37;95529.66;;;16.82;100.00
46724;BME280;32463;48.298;11.620;2023-08-06T12:33:06;95505.56;;;16.80;100.00
46724;BME280;32463;48.298;11.620;2023-08-06T12:35:33;95533.25;;;17.25;100.00
46724;BME280;32463;48.298;11.620;2023-08-06T12:38:00;95504.38;;;16.76;100.00
46724;BME280;32463;48.298;11.620;2023-08-06T12:40:26;95518.63;;;16.56;100.00
46724;BME280;32463;48.298;11.620;2023-08-06T12:42:53;95528.94;;;16.26;100.00
46724;BME280;32463;48.298;11.620;2023-08-06T12:45:19;95528.22;;;16.19;100.00
46724;BME280;32463;48.298;11.620;2023-08-06T12:47:47;95531.94;;;16.04;100.00
46724;BME280;32463;48.298;11.620;2023-08-06T12:50:14;95549.75;;;15.89;100.00